»·PEaware :: SXGIO KSMF-KRHV

SXGIO :: KSMF-KRHV

FLIGHT INFORMATION

Flight Status: Arrived
Operator: Unknown
More flights by this operator :: More flights under this callsign
Pilot: Georgios T. (25786)
Aircraft: CESSNA 172 SKYHAWK
(C172)
More flights by this aircraft type
Origin: KSMF Sacramento Intl
United States
Destination: KRHV Reid-Hillview
United States
More flights between these airports :: More routes between these airports
Route: +
File this flight plan on PilotEdge
Remarks:
Altitude:
(Current/Filed)
0ft
Speed:
(Current/Filed)
0kts
Departed: 11-May-20 10:52 AM
Arrived: 11-May-20 11:50 AM
Distance/Time
Traveled:
82nm/0:57
Distance/Time
To Go:
Arrived

Flight Plot

Page will automatically refresh every two minutes.

Flight plan parsing failed; only flown route is shown


Map Options




Map Legend


Flown Route
Filed Route
Departure Airport
Arrival Airport
Navaid (VOR, NDB)
Fix

Horizontal Profiles

Position Reports

Time Latitude Longitude Heading Altitude Ground
Speed
11-May-20 10:41 38.683852 -121.595752 359 23ft 0kts
11-May-20 10:42 38.683852 -121.595752 359 23ft 0kts
11-May-20 10:43 38.683895 -121.595754 354 23ft 2kts
11-May-20 10:43 38.683807 -121.598172 268 24ft 12kts
11-May-20 10:45 38.688209 -121.598795 0 26ft 19kts
11-May-20 10:45 38.693174 -121.598718 359 27ft 23kts
11-May-20 10:47 38.701276 -121.598581 0 26ft 26kts
11-May-20 10:47 38.706980 -121.598605 322 27ft 12kts
11-May-20 10:48 38.707193 -121.599849 270 27ft 0kts
11-May-20 10:49 38.707193 -121.599849 270 27ft 0kts
11-May-20 10:50 38.707193 -121.599849 270 27ft 0kts
11-May-20 10:51 38.703159 -121.601198 181 40ft 67kts
11-May-20 10:52 38.681789 -121.601508 178 845ft 76kts
11-May-20 10:53 38.660485 -121.601077 178 1667ft 77kts
11-May-20 10:54 38.639131 -121.602166 181 2439ft 77kts
11-May-20 10:55 38.617713 -121.600608 180 3177ft 78kts
11-May-20 10:56 38.596179 -121.602381 184 3876ft 78kts
11-May-20 10:57 38.574658 -121.606146 192 4559ft 78kts
11-May-20 10:58 38.553234 -121.611145 188 5199ft 78kts
11-May-20 10:59 38.530450 -121.613131 184 5541ft 90kts
11-May-20 11:00 38.504414 -121.616409 186 5552ft 96kts
11-May-20 11:01 38.478317 -121.619786 185 5551ft 92kts
11-May-20 11:02 38.452719 -121.621656 184 5550ft 91kts
11-May-20 11:03 38.427493 -121.623292 183 5549ft 90kts
11-May-20 11:04 38.402271 -121.624826 184 5548ft 90kts
11-May-20 11:05 38.377163 -121.626160 183 5546ft 90kts
11-May-20 11:06 38.351984 -121.627267 183 5543ft 90kts
11-May-20 11:07 38.326793 -121.628311 183 5539ft 90kts
11-May-20 11:08 38.301770 -121.629219 183 5535ft 91kts
11-May-20 11:09 38.276413 -121.629990 183 5530ft 91kts
11-May-20 11:10 38.250926 -121.630579 182 5524ft 91kts
11-May-20 11:11 38.225386 -121.631028 182 5518ft 92kts
11-May-20 11:12 38.199808 -121.631389 182 5511ft 92kts
11-May-20 11:13 38.174184 -121.631678 182 5503ft 92kts
11-May-20 11:14 38.148516 -121.631880 182 5495ft 92kts
11-May-20 11:15 38.122928 -121.631987 182 5485ft 92kts
11-May-20 11:16 38.097131 -121.632002 182 5475ft 92kts
11-May-20 11:17 38.071320 -121.631918 182 5463ft 92kts
11-May-20 11:18 38.045583 -121.631289 181 5469ft 91kts
11-May-20 11:19 38.020431 -121.629900 181 5530ft 91kts
11-May-20 11:20 37.994874 -121.630952 190 5525ft 95kts
11-May-20 11:21 37.967739 -121.635598 192 5522ft 100kts
11-May-20 11:22 37.939727 -121.640549 193 5518ft 102kts
11-May-20 11:23 37.911044 -121.645586 193 5515ft 104kts
11-May-20 11:24 37.882060 -121.650668 194 5522ft 106kts
11-May-20 11:25 37.852795 -121.655797 194 5534ft 106kts
11-May-20 11:26 37.823351 -121.660985 194 5544ft 107kts
11-May-20 11:27 37.793801 -121.666213 194 5555ft 107kts
11-May-20 11:28 37.764213 -121.671386 194 5565ft 107kts
11-May-20 11:29 37.734679 -121.676545 194 5574ft 107kts
11-May-20 11:30 37.704771 -121.681780 194 5509ft 109kts
11-May-20 11:31 37.680056 -121.702023 231 5119ft 112kts
11-May-20 11:32 37.659362 -121.731930 231 4725ft 113kts
11-May-20 11:33 37.639028 -121.761496 231 4486ft 104kts
11-May-20 11:34 37.619000 -121.784888 207 4482ft 99kts
11-May-20 11:35 37.593477 -121.797011 205 4486ft 97kts
11-May-20 11:36 37.568311 -121.809070 205 4492ft 96kts
11-May-20 11:37 37.543158 -121.821834 205 4500ft 97kts
11-May-20 11:38 37.517019 -121.830669 195 4504ft 97kts
11-May-20 11:39 37.490931 -121.838971 195 4451ft 100kts
11-May-20 11:40 37.463258 -121.848662 188 4054ft 103kts
11-May-20 11:41 37.435048 -121.844343 166 3652ft 103kts
11-May-20 11:42 37.406689 -121.836901 176 3195ft 105kts
11-May-20 11:43 37.377249 -121.835629 172 2707ft 108kts
11-May-20 11:44 37.349060 -121.830858 173 2237ft 91kts
11-May-20 11:45 37.330201 -121.816729 91 1597ft 96kts
11-May-20 11:46 37.352576 -121.817045 318 1111ft 96kts
11-May-20 11:47 37.346754 -121.832080 149 533ft 55kts
11-May-20 11:48 37.334785 -121.820955 145 129ft 41kts
11-May-20 11:49 37.332534 -121.817659 319 134ft 6kts
11-May-20 11:50 37.333627 -121.817250 143 133ft 0kts

Navigation Log

Ident Type
Flight plan parsing failed, navigation log unavailable